Time;durP1;ratioP1;P1;durP2;ratioP2;P2;SDS_P1;SDS_P2;PMS_P1;PMS_P2;Temp;Humidity;BMP_temperature;BMP_pressure;BME280_temperature;BME280_humidity;BME280_pressure;Samples;Min_cycle;Max_cycle;Signal;HPM_P1;HPM_P2
2022/07/25 00:01:12;;;;;;;8.10;1.40;;;;;;;15.53;64.68;100533.27;106203;1270;22548;-49
2022/07/25 00:03:43;;;;;;;4.20;1.00;;;;;;;15.48;64.93;100533.82;106090;1271;22521;-49
2022/07/25 00:06:14;;;;;;;3.90;1.00;;;;;;;15.44;65.00;100529.84;106039;1271;25339;-48
2022/07/25 00:08:46;;;;;;;4.50;1.00;;;;;;;15.39;65.11;100531.24;105970;1270;22544;-48
2022/07/25 00:11:19;;;;;;;4.20;1.30;;;;;;;15.36;65.19;100528.20;105997;1271;22553;-49
2022/07/25 00:13:51;;;;;;;6.80;1.20;;;;;;;15.32;65.40;100529.11;106032;1270;22648;-47
2022/07/25 00:16:23;;;;;;;4.10;1.00;;;;;;;15.27;65.59;100532.35;106031;1270;24370;-49
2022/07/25 00:18:54;;;;;;;6.30;1.20;;;;;;;15.22;65.80;100528.80;106092;1270;22691;-50
2022/07/25 00:21:26;;;;;;;4.10;1.20;;;;;;;15.18;66.16;100528.68;106052;1270;26605;-47
2022/07/25 00:23:58;;;;;;;7.40;1.20;;;;;;;15.15;66.28;100528.56;105947;1270;22602;-50
2022/07/25 00:26:30;;;;;;;4.00;1.20;;;;;;;15.14;66.36;100524.52;106051;1269;24372;-49
2022/07/25 00:29:02;;;;;;;5.50;1.20;;;;;;;15.12;66.29;100522.94;106004;1271;22789;-48
2022/07/25 00:31:35;;;;;;;6.00;1.20;;;;;;;15.08;66.48;100520.91;106147;1270;25381;-49
2022/07/25 00:34:06;;;;;;;9.70;1.50;;;;;;;15.04;66.65;100525.44;106130;1270;23220;-47
2022/07/25 00:36:38;;;;;;;5.10;1.10;;;;;;;15.02;66.78;100524.20;106247;1270;23741;-50
2022/07/25 00:39:09;;;;;;;6.10;1.10;;;;;;;15.01;66.82;100518.11;105993;1270;22546;-52
2022/07/25 00:41:43;;;;;;;4.20;1.10;;;;;;;15.00;66.93;100519.14;106073;1270;24357;-50
2022/07/25 00:44:24;;;;;;;5.00;1.20;;;;;;;14.96;67.07;100514.57;106038;1270;26980;-49
2022/07/25 00:46:57;;;;;;;10.60;1.60;;;;;;;14.93;67.12;100513.73;106202;1270;22598;-50
2022/07/25 00:49:28;;;;;;;4.60;1.30;;;;;;;14.90;67.15;100510.79;105912;1270;22531;-51
2022/07/25 00:52:00;;;;;;;5.80;1.10;;;;;;;14.87;67.28;100512.20;106167;1270;23285;-50
2022/07/25 00:54:33;;;;;;;4.80;1.30;;;;;;;14.84;67.17;100508.09;105968;1270;22980;-49
2022/07/25 00:57:08;;;;;;;4.10;1.20;;;;;;;14.81;67.50;100511.10;106070;1270;22547;-52
2022/07/25 00:59:40;;;;;;;5.60;1.50;;;;;;;14.80;67.40;100511.64;105968;1270;23175;-47
2022/07/25 01:02:11;;;;;;;5.00;1.40;;;;;;;14.78;67.68;100510.16;106004;1270;25969;-50
2022/07/25 01:04:42;;;;;;;5.00;1.20;;;;;;;14.75;67.55;100502.77;106046;1270;22524;-48
2022/07/25 01:07:14;;;;;;;6.90;1.30;;;;;;;14.72;67.68;100503.84;105783;1271;435859;-49
2022/07/25 01:09:45;;;;;;;5.40;1.40;;;;;;;14.68;67.81;100504.27;106010;1270;22514;-50
2022/07/25 01:12:17;;;;;;;6.20;1.60;;;;;;;14.63;68.02;100503.98;106027;1270;24359;-49
2022/07/25 01:14:49;;;;;;;5.30;1.40;;;;;;;14.58;68.05;100508.34;106066;1268;22986;-47
2022/07/25 01:17:20;;;;;;;6.30;1.70;;;;;;;14.54;68.22;100507.80;106020;1270;22560;-48
2022/07/25 01:19:52;;;;;;;3.90;1.10;;;;;;;14.49;68.34;100503.88;106064;1270;25391;-50
2022/07/25 01:22:23;;;;;;;7.90;1.30;;;;;;;14.44;68.48;100498.98;105959;1270;22542;-48
2022/07/25 01:24:55;;;;;;;5.80;1.40;;;;;;;14.40;68.42;100503.92;105881;1271;22544;-49
2022/07/25 01:27:26;;;;;;;4.70;1.10;;;;;;;14.35;68.76;100502.14;106016;1270;22662;-52
2022/07/25 01:29:59;;;;;;;5.70;1.20;;;;;;;14.32;68.60;100498.34;106124;1270;25338;-49
2022/07/25 01:32:30;;;;;;;4.50;1.30;;;;;;;14.27;68.76;100494.05;106012;1270;22554;-50
2022/07/25 01:35:02;;;;;;;5.60;1.60;;;;;;;14.23;68.81;100491.44;106140;1268;22563;-49
2022/07/25 01:37:34;;;;;;;6.00;1.50;;;;;;;14.19;69.03;100486.86;106242;1271;22563;-51
2022/07/25 01:40:07;;;;;;;9.00;1.70;;;;;;;14.19;68.97;100482.31;106323;1270;22544;-48
2022/07/25 01:42:38;;;;;;;7.20;1.40;;;;;;;14.17;69.17;100479.86;106224;1270;22554;-51
2022/07/25 01:45:12;;;;;;;7.70;1.30;;;;;;;14.16;69.23;100473.66;106211;1271;22524;-53
2022/07/25 01:47:43;;;;;;;6.30;1.30;;;;;;;14.17;69.39;100475.31;106088;1270;22529;-50
2022/07/25 01:50:14;;;;;;;6.10;1.30;;;;;;;14.16;69.43;100469.79;106059;1270;25343;-49
2022/07/25 01:52:46;;;;;;;4.70;1.40;;;;;;;14.13;69.71;100469.10;106190;1270;25312;-48
2022/07/25 01:55:18;;;;;;;10.30;1.50;;;;;;;14.10;69.78;100465.66;105985;1270;22531;-47
2022/07/25 01:57:50;;;;;;;5.90;1.30;;;;;;;14.07;69.84;100466.20;105932;1270;25278;-48
2022/07/25 02:00:21;;;;;;;7.00;1.50;;;;;;;14.04;69.97;100466.48;106036;1270;22642;-48
2022/07/25 02:03:28;;;;;;;6.80;1.50;;;;;;;14.02;70.02;100465.75;105769;1270;22531;-48
2022/07/25 02:05:46;;;;;;;4.60;1.30;;;;;;;13.99;70.02;100460.06;105860;1270;22732;-52
2022/07/25 02:08:17;;;;;;;5.30;1.40;;;;;;;13.96;70.09;100452.37;106044;1270;22545;-48
2022/07/25 02:10:49;;;;;;;4.40;1.10;;;;;;;13.94;70.16;100456.59;105991;1270;23892;-48
2022/07/25 02:13:21;;;;;;;5.60;1.20;;;;;;;13.92;70.13;100455.45;106085;1270;22562;-48
2022/07/25 02:15:54;;;;;;;6.10;1.60;;;;;;;13.89;70.28;100457.32;106068;1270;22529;-51
2022/07/25 02:18:26;;;;;;;4.50;1.30;;;;;;;13.86;70.47;100455.04;106107;1270;25341;-49
2022/07/25 02:21:01;;;;;;;4.40;1.10;;;;;;;13.83;70.71;100453.73;106039;1270;22525;-52
2022/07/25 02:23:33;;;;;;;4.80;1.50;;;;;;;13.79;70.69;100454.83;106133;1271;24396;-48
2022/07/25 02:26:04;;;;;;;6.40;1.40;;;;;;;13.77;70.80;100453.48;106004;1270;25229;-48
2022/07/25 02:28:36;;;;;;;4.50;1.30;;;;;;;13.76;70.76;100456.48;106104;1270;22619;-46
2022/07/25 02:31:08;;;;;;;7.00;1.60;;;;;;;13.75;71.00;100462.70;105933;1270;25251;-48
2022/07/25 02:33:40;;;;;;;6.20;1.30;;;;;;;13.72;70.89;100465.67;106157;1270;23809;-50
2022/07/25 02:36:13;;;;;;;6.90;1.60;;;;;;;13.69;71.06;100462.53;106229;1270;24664;-48
2022/07/25 02:38:44;;;;;;;4.90;1.40;;;;;;;13.65;71.20;100459.08;106162;1270;25307;-48
2022/07/25 02:41:16;;;;;;;6.60;1.40;;;;;;;13.62;71.17;100461.75;106036;1270;22601;-50
2022/07/25 02:43:48;;;;;;;7.30;1.50;;;;;;;13.59;71.34;100462.98;106156;1270;23731;-49
2022/07/25 02:46:19;;;;;;;6.00;1.40;;;;;;;13.55;71.48;100462.48;106019;1270;22665;-49
2022/07/25 02:48:51;;;;;;;6.10;1.40;;;;;;;13.53;71.57;100463.44;106028;1270;22551;-50
2022/07/25 02:51:22;;;;;;;8.40;1.70;;;;;;;13.49;71.61;100462.69;106057;1270;24279;-49
2022/07/25 02:53:54;;;;;;;5.60;1.40;;;;;;;13.46;71.53;100464.59;106097;1270;25815;-48
2022/07/25 02:56:26;;;;;;;5.80;1.20;;;;;;;13.42;71.83;100457.91;106277;1270;25246;-48
2022/07/25 02:58:57;;;;;;;5.10;1.70;;;;;;;13.40;71.74;100455.23;106116;1270;22532;-49
2022/07/25 03:01:28;;;;;;;8.10;1.50;;;;;;;13.38;71.97;100456.27;105985;1271;22605;-47
2022/07/25 03:04:02;;;;;;;7.20;1.50;;;;;;;13.35;72.01;100455.23;106152;1270;22525;-47
2022/07/25 03:06:35;;;;;;;7.60;1.60;;;;;;;13.33;72.13;100453.48;105999;1270;22531;-49
2022/07/25 03:09:06;;;;;;;6.00;1.40;;;;;;;13.31;72.16;100455.65;106206;1270;25254;-50
2022/07/25 03:11:37;;;;;;;5.90;1.70;;;;;;;13.29;72.32;100461.55;106110;1270;22542;-48
2022/07/25 03:14:09;;;;;;;4.60;1.40;;;;;;;13.27;72.43;100457.04;106024;1270;22561;-48
2022/07/25 03:16:40;;;;;;;7.80;1.40;;;;;;;13.26;72.39;100447.24;106157;1270;22531;-49
2022/07/25 03:19:13;;;;;;;6.70;1.40;;;;;;;13.25;72.50;100442.58;106183;1270;24711;-50
2022/07/25 03:21:46;;;;;;;10.90;1.90;;;;;;;13.24;72.56;100447.05;106233;1270;22544;-50
2022/07/25 03:24:18;;;;;;;8.30;1.80;;;;;;;13.22;72.68;100446.52;105982;1270;22525;-49
2022/07/25 03:26:49;;;;;;;7.50;1.70;;;;;;;13.20;72.92;100446.81;105912;1270;24332;-47
2022/07/25 03:29:21;;;;;;;7.50;1.60;;;;;;;13.19;73.04;100448.39;106133;1270;25359;-52
2022/07/25 03:31:52;;;;;;;7.70;1.60;;;;;;;13.18;72.98;100448.77;105864;1270;22556;-48
2022/07/25 03:34:23;;;;;;;5.30;1.50;;;;;;;13.18;72.94;100449.08;106075;1270;25333;-50
2022/07/25 03:36:55;;;;;;;7.60;1.70;;;;;;;13.18;73.12;100448.92;106141;1270;22532;-48
2022/07/25 03:39:27;;;;;;;11.40;1.50;;;;;;;13.19;73.24;100446.80;106000;1270;22547;-53
2022/07/25 03:41:58;;;;;;;9.00;1.80;;;;;;;13.19;73.30;100446.07;106106;1270;23116;-52
2022/07/25 03:44:31;;;;;;;12.30;1.70;;;;;;;13.18;73.61;100447.65;105896;1270;25425;-47
2022/07/25 03:47:05;;;;;;;11.00;1.70;;;;;;;13.18;73.66;100441.23;106277;1270;23059;-48
2022/07/25 03:49:36;;;;;;;9.10;1.80;;;;;;;13.19;73.73;100438.08;106136;1271;24728;-59
2022/07/25 03:52:11;;;;;;;10.10;1.60;;;;;;;13.20;73.73;100435.34;106148;1270;23653;-57
2022/07/25 03:54:42;;;;;;;5.10;1.40;;;;;;;13.22;73.97;100431.28;106168;1273;22567;-55
2022/07/25 03:57:13;;;;;;;7.90;1.80;;;;;;;13.24;74.13;100430.03;105961;1272;25253;-57
2022/07/25 03:59:45;;;;;;;6.90;1.40;;;;;;;13.27;74.44;100424.98;106128;1271;24242;-56
2022/07/25 04:02:16;;;;;;;8.60;1.80;;;;;;;13.31;74.50;100426.34;106137;1271;22530;-55
2022/07/25 04:04:48;;;;;;;8.00;1.80;;;;;;;13.35;74.64;100426.23;106156;1273;23826;-54
2022/07/25 04:07:19;;;;;;;10.10;1.80;;;;;;;13.41;74.51;100422.92;106235;1271;22751;-55
2022/07/25 04:09:51;;;;;;;5.50;1.70;;;;;;;13.47;74.74;100427.27;106188;1272;24244;-53
2022/07/25 04:12:24;;;;;;;10.50;2.10;;;;;;;13.52;74.90;100426.40;106189;1271;24228;-55
2022/07/25 04:14:55;;;;;;;8.40;2.10;;;;;;;13.59;75.09;100421.31;106151;1271;22544;-56
2022/07/25 04:17:27;;;;;;;6.30;1.80;;;;;;;13.66;75.25;100420.67;106047;1273;25533;-56
2022/07/25 04:19:58;;;;;;;6.50;1.80;;;;;;;13.73;75.28;100418.14;106111;1271;22566;-57
2022/07/25 04:22:29;;;;;;;12.10;2.30;;;;;;;13.80;75.19;100416.83;106142;1271;24310;-58
2022/07/25 04:25:01;;;;;;;7.80;2.10;;;;;;;13.89;75.28;100420.00;106166;1271;22550;-54
2022/07/25 04:27:33;;;;;;;5.30;1.70;;;;;;;13.96;75.17;100415.63;106160;1272;22528;-56
2022/07/25 04:30:07;;;;;;;8.20;1.90;;;;;;;14.03;75.33;100410.08;106179;1271;22755;-56
2022/07/25 04:32:38;;;;;;;17.50;2.00;;;;;;;14.11;75.23;100408.85;106169;1273;22539;-56
2022/07/25 04:35:11;;;;;;;12.90;2.90;;;;;;;14.19;75.16;100401.82;106001;1271;22551;-56
2022/07/25 04:37:42;;;;;;;6.80;1.90;;;;;;;14.27;74.98;100396.48;106079;1273;24266;-55
2022/07/25 04:40:15;;;;;;;5.80;1.70;;;;;;;14.35;74.90;100397.15;106116;1273;22525;-57
2022/07/25 04:42:46;;;;;;;10.20;1.90;;;;;;;14.44;74.87;100391.45;106221;1273;22550;-54
2022/07/25 04:45:18;;;;;;;9.00;2.10;;;;;;;14.52;75.25;100393.52;106169;1273;22680;-55
2022/07/25 04:47:50;;;;;;;5.80;1.70;;;;;;;14.60;75.28;100393.97;106197;1271;24997;-56
2022/07/25 04:50:21;;;;;;;7.40;2.00;;;;;;;14.69;74.99;100392.84;106057;1271;22627;-54
2022/07/25 04:52:53;;;;;;;7.60;1.50;;;;;;;14.78;74.85;100388.02;106113;1271;22752;-54
2022/07/25 04:55:24;;;;;;;8.20;2.00;;;;;;;14.88;74.85;100386.27;105750;1271;22550;-56
2022/07/25 04:57:56;;;;;;;8.80;1.80;;;;;;;15.00;74.94;100388.72;105916;1271;25507;-57
2022/07/25 05:00:27;;;;;;;8.80;1.90;;;;;;;15.13;74.80;100388.88;106099;1273;24289;-59
2022/07/25 05:03:00;;;;;;;9.90;1.70;;;;;;;15.24;74.39;100392.12;106077;1273;24325;-58
2022/07/25 05:05:31;;;;;;;8.70;2.00;;;;;;;15.33;74.55;100392.05;106013;1273;22570;-57
2022/07/25 05:08:03;;;;;;;8.20;2.00;;;;;;;15.42;74.50;100386.64;106189;1271;22529;-58
2022/07/25 05:10:34;;;;;;;5.70;1.40;;;;;;;15.54;74.53;100382.75;106076;1273;24358;-59
2022/07/25 05:13:06;;;;;;;7.50;1.80;;;;;;;15.68;74.41;100382.34;106182;1273;22545;-57
2022/07/25 05:15:37;;;;;;;12.40;2.20;;;;;;;15.79;74.03;100382.55;106183;1273;25242;-55
2022/07/25 05:18:10;;;;;;;5.70;2.00;;;;;;;15.91;74.35;100386.75;106217;1271;22597;-58
2022/07/25 05:20:41;;;;;;;7.90;1.90;;;;;;;16.05;73.93;100381.42;106148;1271;22871;-60
2022/07/25 05:23:13;;;;;;;8.40;2.40;;;;;;;16.18;73.87;100378.98;106223;1271;22598;-58
2022/07/25 05:25:45;;;;;;;8.70;2.30;;;;;;;16.33;73.90;100379.33;106236;1273;24241;-58
2022/07/25 05:28:16;;;;;;;8.00;1.60;;;;;;;16.50;73.77;100372.94;106097;1273;24352;-58
2022/07/25 05:30:48;;;;;;;7.20;1.50;;;;;;;16.66;73.55;100366.90;105873;1271;25478;-58
2022/07/25 05:33:19;;;;;;;7.40;1.70;;;;;;;16.82;73.38;100365.36;106919;1271;25441;-59
2022/07/25 05:35:51;;;;;;;8.50;1.70;;;;;;;16.95;73.06;100361.29;106152;1271;23822;-57
2022/07/25 05:38:23;;;;;;;7.50;1.90;;;;;;;17.08;72.84;100358.05;106144;1271;23960;-57
2022/07/25 05:40:55;;;;;;;8.30;1.40;;;;;;;17.21;72.47;100357.21;106153;1271;24183;-57
2022/07/25 05:43:26;;;;;;;7.90;1.80;;;;;;;17.31;72.04;100352.93;106136;1270;22553;-58
2022/07/25 05:46:02;;;;;;;9.70;1.70;;;;;;;17.42;72.17;100353.53;106116;1271;26104;-60
2022/07/25 05:48:34;;;;;;;7.50;1.50;;;;;;;17.61;71.76;100353.37;106162;1271;22557;-57
2022/07/25 05:51:05;;;;;;;6.00;1.70;;;;;;;17.77;71.22;100348.05;105817;1271;22830;-58
2022/07/25 05:53:37;;;;;;;5.30;1.40;;;;;;;17.92;71.20;100348.89;107153;1271;25377;-58
2022/07/25 05:56:10;;;;;;;5.70;1.40;;;;;;;18.11;70.93;100348.76;105832;1271;22547;-60
2022/07/25 05:58:42;;;;;;;5.40;1.30;;;;;;;18.28;70.26;100348.02;106069;1271;22553;-56
2022/07/25 06:01:16;;;;;;;4.30;1.10;;;;;;;18.43;69.19;100346.95;106095;1272;24766;-59
2022/07/25 06:03:48;;;;;;;4.50;1.00;;;;;;;18.57;68.54;100347.31;106040;1271;22525;-58
2022/07/25 06:06:20;;;;;;;6.50;1.30;;;;;;;18.69;68.07;100350.81;105815;1271;22542;-58
2022/07/25 06:08:51;;;;;;;5.60;1.20;;;;;;;18.86;68.03;100347.06;106068;1272;22744;-60
2022/07/25 06:11:25;;;;;;;5.00;1.00;;;;;;;19.02;67.35;100352.66;106147;1271;23866;-58
2022/07/25 06:13:57;;;;;;;5.50;1.20;;;;;;;19.17;67.32;100349.20;106084;1271;25427;-56
2022/07/25 06:16:29;;;;;;;5.30;1.10;;;;;;;19.32;66.75;100354.23;106143;1271;22529;-57
2022/07/25 06:19:00;;;;;;;4.60;1.00;;;;;;;19.48;66.35;100350.79;106109;1271;23941;-57
2022/07/25 06:21:32;;;;;;;5.20;1.20;;;;;;;19.63;66.01;100351.42;106262;1271;24239;-57
2022/07/25 06:24:04;;;;;;;5.90;1.00;;;;;;;19.79;65.45;100351.30;106137;1271;25261;-59
2022/07/25 06:26:37;;;;;;;6.40;1.50;;;;;;;19.94;64.93;100346.12;106126;1271;22638;-58
2022/07/25 06:29:08;;;;;;;3.90;0.90;;;;;;;20.09;64.51;100346.55;106110;1271;25490;-59
2022/07/25 06:31:40;;;;;;;3.80;0.90;;;;;;;20.25;64.08;100345.31;106168;1271;22585;-58
2022/07/25 06:34:11;;;;;;;4.50;1.00;;;;;;;20.39;63.45;100340.86;106134;1272;22607;-59
2022/07/25 06:36:43;;;;;;;6.70;1.00;;;;;;;20.50;63.02;100331.69;105918;1271;25260;-59
2022/07/25 06:39:15;;;;;;;2.70;0.80;;;;;;;20.58;62.73;100329.91;106161;1271;24257;-59
2022/07/25 06:41:47;;;;;;;3.70;1.00;;;;;;;20.68;62.33;100328.16;106070;1271;22591;-57
2022/07/25 06:44:19;;;;;;;6.40;0.80;;;;;;;20.79;61.69;100323.39;106046;1271;26613;-59
2022/07/25 06:46:51;;;;;;;4.40;1.10;;;;;;;20.88;61.41;100325.67;106109;1271;24784;-58
2022/07/25 06:49:23;;;;;;;4.70;1.20;;;;;;;20.97;61.18;100319.03;106015;1273;26749;-58
2022/07/25 06:51:55;;;;;;;4.20;0.80;;;;;;;21.07;60.94;100313.20;106223;1273;22565;-60
2022/07/25 06:54:26;;;;;;;3.30;0.80;;;;;;;21.20;60.44;100314.52;106013;1273;22565;-59
2022/07/25 06:56:58;;;;;;;3.50;0.90;;;;;;;21.32;60.17;100309.38;106210;1273;22547;-59
2022/07/25 06:59:29;;;;;;;3.90;0.90;;;;;;;21.45;59.82;100305.39;105977;1273;24239;-60
2022/07/25 07:02:01;;;;;;;3.50;0.80;;;;;;;21.57;59.18;100305.81;105971;1273;22684;-59
2022/07/25 07:04:33;;;;;;;3.10;0.70;;;;;;;21.68;58.02;100301.94;106018;1273;25641;-59
2022/07/25 07:07:05;;;;;;;3.90;0.80;;;;;;;21.81;58.26;100298.20;106142;1273;26444;-61
2022/07/25 07:09:37;;;;;;;4.40;0.80;;;;;;;21.97;57.88;100294.55;106039;1273;25582;-60
2022/07/25 07:12:11;;;;;;;5.90;0.80;;;;;;;22.12;57.47;100287.41;105996;1273;22771;-61
2022/07/25 07:14:44;;;;;;;4.40;0.80;;;;;;;22.25;56.85;100288.39;106026;1273;22570;-59
2022/07/25 07:17:15;;;;;;;5.60;0.80;;;;;;;22.37;56.58;100287.48;105968;1273;22530;-60
2022/07/25 07:19:47;;;;;;;2.90;0.70;;;;;;;22.50;56.25;100290.48;106020;1273;22545;-59
2022/07/25 07:22:18;;;;;;;5.70;0.80;;;;;;;22.65;55.89;100284.89;106084;1273;22543;-60
2022/07/25 07:24:50;;;;;;;5.40;0.90;;;;;;;22.80;55.26;100284.19;106034;1273;25305;-60
2022/07/25 07:27:23;;;;;;;3.40;0.80;;;;;;;22.91;54.80;100279.45;105993;1273;25381;-60
2022/07/25 07:29:55;;;;;;;5.40;0.90;;;;;;;23.02;54.40;100275.85;106155;1273;24216;-60
2022/07/25 07:32:27;;;;;;;3.90;0.80;;;;;;;23.14;53.88;100277.42;106484;1273;22643;-61
2022/07/25 07:34:59;;;;;;;4.80;0.80;;;;;;;23.26;52.93;100273.23;105939;1273;25593;-61
2022/07/25 07:37:30;;;;;;;4.10;0.80;;;;;;;23.39;52.76;100267.29;105875;1273;25491;-59
2022/07/25 07:40:03;;;;;;;4.60;0.80;;;;;;;23.51;52.60;100267.45;106079;1273;24501;-61
2022/07/25 07:42:41;;;;;;;3.80;0.80;;;;;;;23.62;51.88;100261.95;106120;1273;24232;-61
2022/07/25 07:45:18;;;;;;;5.10;0.70;;;;;;;23.74;51.58;100258.11;105890;1273;25371;-61
2022/07/25 07:47:51;;;;;;;3.30;0.80;;;;;;;23.89;51.01;100256.08;105970;1273;22547;-62
2022/07/25 07:50:24;;;;;;;6.10;0.90;;;;;;;24.04;50.62;100255.65;105855;1273;22519;-63
2022/07/25 07:52:57;;;;;;;2.50;0.60;;;;;;;24.16;50.30;100253.64;105749;1273;25370;-61
2022/07/25 07:55:47;;;;;;;4.00;0.90;;;;;;;24.26;50.34;100245.86;105888;1273;22535;-62
2022/07/25 07:58:21;;;;;;;3.30;0.70;;;;;;;24.41;49.69;100242.91;105857;1273;24283;-62
2022/07/25 08:00:53;;;;;;;5.00;0.80;;;;;;;24.53;49.26;100241.62;105758;1273;22559;-62
2022/07/25 08:03:24;;;;;;;3.20;0.80;;;;;;;24.63;48.72;100234.99;106028;1273;22559;-60
2022/07/25 08:05:56;;;;;;;3.80;0.90;;;;;;;24.72;48.09;100230.54;106030;1273;22613;-62
2022/07/25 08:08:28;;;;;;;6.80;0.70;;;;;;;24.84;47.71;100228.11;105867;1273;23065;-62
2022/07/25 08:10:59;;;;;;;7.10;0.60;;;;;;;24.98;47.03;100231.22;105977;1273;23135;-61
2022/07/25 08:13:32;;;;;;;6.00;0.90;;;;;;;25.09;46.03;100230.39;105963;1273;22544;-61
2022/07/25 08:16:05;;;;;;;2.70;0.70;;;;;;;25.21;45.87;100229.55;105965;1273;22535;-62
2022/07/25 08:18:37;;;;;;;4.10;0.60;;;;;;;25.31;45.95;100230.73;105973;1273;22581;-62
2022/07/25 08:21:09;;;;;;;2.80;0.60;;;;;;;25.44;45.76;100232.03;106092;1273;23023;-61
2022/07/25 08:23:41;;;;;;;3.40;0.60;;;;;;;25.56;45.05;100223.83;105896;1273;24244;-62
2022/07/25 08:26:14;;;;;;;2.50;0.70;;;;;;;25.66;44.53;100231.23;106080;1273;22609;-62
2022/07/25 08:28:46;;;;;;;2.70;0.70;;;;;;;25.74;43.96;100228.89;106159;1273;22791;-62
2022/07/25 08:31:18;;;;;;;4.40;0.70;;;;;;;25.84;43.70;100229.77;106156;1273;24531;-63
2022/07/25 08:33:50;;;;;;;3.60;0.60;;;;;;;25.96;42.66;100226.51;106115;1273;25392;-62
2022/07/25 08:36:22;;;;;;;3.20;0.40;;;;;;;26.06;42.39;100222.64;106120;1273;22693;-63
2022/07/25 08:38:53;;;;;;;2.80;0.60;;;;;;;26.14;42.27;100220.77;106143;1273;24335;-63
2022/07/25 08:41:26;;;;;;;2.70;0.60;;;;;;;26.22;41.58;100220.14;106105;1273;23055;-63
2022/07/25 08:43:58;;;;;;;3.80;0.70;;;;;;;26.33;41.71;100221.95;106087;1273;22655;-63
2022/07/25 08:46:31;;;;;;;3.50;0.50;;;;;;;26.38;41.33;100217.94;106190;1273;26524;-64
2022/07/25 08:49:04;;;;;;;3.20;0.60;;;;;;;26.47;40.87;100220.92;106245;1273;22682;-63
2022/07/25 08:51:36;;;;;;;1.50;0.50;;;;;;;26.57;39.90;100218.45;106203;1273;26527;-63
2022/07/25 08:54:08;;;;;;;1.80;0.50;;;;;;;26.67;39.56;100217.85;106104;1273;22550;-64
2022/07/25 08:56:39;;;;;;;1.70;0.60;;;;;;;26.76;38.91;100211.88;106057;1273;22917;-63
2022/07/25 08:59:11;;;;;;;3.60;0.50;;;;;;;26.83;38.59;100207.73;106157;1273;22737;-63
2022/07/25 09:01:42;;;;;;;3.00;0.50;;;;;;;26.92;38.34;100201.99;106130;1273;25375;-65
2022/07/25 09:04:14;;;;;;;2.90;0.40;;;;;;;27.00;38.34;100196.52;106316;1273;25424;-63
2022/07/25 09:06:52;;;;;;;4.30;0.60;;;;;;;27.09;38.15;100195.77;106176;1273;24249;-64
2022/07/25 09:09:34;;;;;;;4.80;0.50;;;;;;;27.14;37.87;100189.77;106159;1273;22578;-63
2022/07/25 09:12:07;;;;;;;3.00;0.50;;;;;;;27.20;37.55;100188.48;106141;1273;24191;-64
2022/07/25 09:14:47;;;;;;;1.20;0.40;;;;;;;27.27;37.15;100189.32;106125;1273;22785;-63
2022/07/25 09:17:19;;;;;;;1.60;0.50;;;;;;;27.34;36.70;100190.85;106256;1273;24357;-64
2022/07/25 09:19:57;;;;;;;1.30;0.50;;;;;;;27.42;36.40;100187.80;106139;1273;22897;-64
2022/07/25 09:22:29;;;;;;;2.50;0.50;;;;;;;27.49;36.45;100179.91;106246;1273;25578;-63
2022/07/25 09:25:00;;;;;;;2.20;0.50;;;;;;;27.56;36.22;100181.40;106284;1273;22551;-64
2022/07/25 09:27:34;;;;;;;3.10;0.50;;;;;;;27.64;36.04;100174.02;106235;1273;25371;-64
2022/07/25 09:30:16;;;;;;;3.80;0.50;;;;;;;27.74;35.96;100171.48;105938;1273;24237;-63
2022/07/25 09:32:48;;;;;;;1.90;0.40;;;;;;;27.82;35.65;100168.69;106096;1273;25523;-63
2022/07/25 09:35:29;;;;;;;1.70;0.50;;;;;;;27.87;35.26;100165.05;106191;1273;22627;-64
2022/07/25 09:38:14;;;;;;;0.90;0.30;;;;;;;27.91;34.85;100167.52;106488;1273;25127;-67
2022/07/25 09:40:56;;;;;;;2.90;0.40;;;;;;;27.98;34.73;100163.48;107011;1273;24443;-64
2022/07/25 09:43:39;;;;;;;1.10;0.40;;;;;;;28.03;34.70;100162.92;106229;1273;22544;-64
2022/07/25 09:46:11;;;;;;;1.50;0.50;;;;;;;28.09;34.41;100160.85;106175;1273;22575;-64
2022/07/25 09:48:56;;;;;;;1.60;0.40;;;;;;;28.13;34.08;100159.99;106546;1261;22562;-53
2022/07/25 09:51:29;;;;;;;2.00;0.50;;;;;;;28.22;33.70;100158.25;105649;1272;25531;-57
2022/07/25 09:54:00;;;;;;;1.80;0.40;;;;;;;28.31;33.65;100153.41;105637;1273;22552;-55
2022/07/25 09:56:34;;;;;;;2.30;0.40;;;;;;;28.40;32.84;100150.62;105722;1273;25318;-54
2022/07/25 09:59:07;;;;;;;3.10;0.40;;;;;;;28.46;33.58;100147.06;105779;1273;22614;-56
2022/07/25 10:01:43;;;;;;;2.60;0.50;;;;;;;28.51;33.10;100149.29;105618;1273;25351;-54
2022/07/25 10:04:21;;;;;;;3.40;0.40;;;;;;;28.55;32.96;100145.05;106025;1272;22553;-56
2022/07/25 10:07:04;;;;;;;2.20;0.40;;;;;;;28.62;33.06;100139.23;105739;1273;24366;-56
2022/07/25 10:09:41;;;;;;;2.80;0.30;;;;;;;28.72;32.55;100134.08;105829;1273;22558;-53
2022/07/25 10:12:15;;;;;;;3.70;0.50;;;;;;;28.80;32.09;100136.34;105655;1273;22551;-57
2022/07/25 10:15:06;;;;;;;1.40;0.40;;;;;;;28.89;31.85;100133.38;105770;1273;22584;-56
2022/07/25 10:17:39;;;;;;;2.90;0.50;;;;;;;28.93;31.63;100129.10;105684;1273;22567;-56
2022/07/25 10:20:11;;;;;;;1.50;0.40;;;;;;;28.97;31.57;100129.35;105723;1273;22522;-54
2022/07/25 10:22:46;;;;;;;1.90;0.50;;;;;;;29.01;31.94;100129.41;105709;1273;24375;-56
2022/07/25 10:25:20;;;;;;;2.10;0.40;;;;;;;29.06;31.75;100129.57;105790;1273;22621;-54
2022/07/25 10:27:59;;;;;;;5.40;0.40;;;;;;;29.10;31.68;100118.95;105866;1273;25329;-56
2022/07/25 10:30:37;;;;;;;1.40;0.40;;;;;;;29.15;31.45;100121.30;105655;1273;23300;-55
2022/07/25 10:33:16;;;;;;;2.50;0.50;;;;;;;29.18;31.31;100112.83;105800;1273;24198;-55
2022/07/25 10:35:48;;;;;;;2.40;0.40;;;;;;;29.23;31.57;100105.10;105738;1273;24305;-55
2022/07/25 10:38:28;;;;;;;2.40;0.40;;;;;;;29.26;31.42;100102.30;105757;1273;22692;-56
2022/07/25 10:41:04;;;;;;;4.30;0.50;;;;;;;29.33;31.11;100101.78;105652;1273;24950;-54
2022/07/25 10:43:40;;;;;;;1.60;0.40;;;;;;;29.39;31.06;100091.09;105675;1273;22532;-54
2022/07/25 10:46:19;;;;;;;1.80;0.40;;;;;;;29.44;31.04;100090.33;105795;1273;24206;-52
2022/07/25 10:49:01;;;;;;;3.00;0.40;;;;;;;29.50;30.64;100087.71;105780;1273;24346;-58
2022/07/25 10:51:34;;;;;;;2.60;0.40;;;;;;;29.54;30.88;100085.08;105683;1271;22554;-55
2022/07/25 10:54:17;;;;;;;2.40;0.40;;;;;;;29.59;31.03;100080.38;105745;1271;22637;-54
2022/07/25 10:56:57;;;;;;;1.70;0.40;;;;;;;29.64;30.50;100071.64;105800;1272;25241;-53
2022/07/25 10:59:34;;;;;;;1.80;0.50;;;;;;;29.65;30.31;100070.38;106104;1272;22623;-54
2022/07/25 11:02:08;;;;;;;2.50;0.40;;;;;;;29.70;30.62;100066.83;105890;1271;23084;-55
2022/07/25 11:04:39;;;;;;;2.10;0.40;;;;;;;29.76;30.69;100066.03;105995;1271;22518;-56
2022/07/25 11:07:12;;;;;;;1.30;0.40;;;;;;;29.82;30.27;100058.78;106010;1271;22556;-57
2022/07/25 11:09:45;;;;;;;4.70;0.50;;;;;;;29.85;30.30;100059.73;105966;1271;25608;-57
2022/07/25 11:12:18;;;;;;;4.10;0.60;;;;;;;29.89;30.12;100054.94;105818;1271;25248;-55
2022/07/25 11:14:50;;;;;;;4.00;0.50;;;;;;;29.90;29.67;100054.98;105882;1272;22691;-56
2022/07/25 11:17:23;;;;;;;2.90;0.50;;;;;;;29.90;29.75;100050.11;106044;1271;22550;-55
2022/07/25 11:20:00;;;;;;;2.10;0.40;;;;;;;29.95;29.70;100048.88;105927;1271;22558;-56
2022/07/25 11:22:33;;;;;;;2.20;0.30;;;;;;;29.99;29.54;100045.99;105972;1273;22986;-56
2022/07/25 11:25:11;;;;;;;3.60;0.50;;;;;;;30.04;29.85;100039.95;105952;1271;25448;-54
2022/07/25 11:27:43;;;;;;;2.70;0.40;;;;;;;30.09;30.06;100039.14;105773;1271;24227;-54
2022/07/25 11:30:17;;;;;;;5.80;0.40;;;;;;;30.16;30.12;100038.45;105785;1271;22740;-55
2022/07/25 11:32:52;;;;;;;2.40;0.40;;;;;;;30.23;29.97;100024.10;105881;1271;22548;-55
2022/07/25 11:35:25;;;;;;;0.90;0.30;;;;;;;30.28;29.68;100020.05;105719;1271;26534;-58
2022/07/25 11:37:57;;;;;;;2.00;0.40;;;;;;;30.34;29.81;100014.70;105706;1273;23157;-55
2022/07/25 11:40:29;;;;;;;1.50;0.40;;;;;;;30.35;29.70;100009.32;105774;1271;22558;-53
2022/07/25 11:43:02;;;;;;;1.90;0.50;;;;;;;30.36;29.65;100007.07;105633;1271;22597;-55